sensor_id;sensor_type;location;lat;lon;timestamp;temperature;humidity
9403;DHT22;4741;49.834;10.740;2023-10-09T21:26:20;13.50;99.90
9403;DHT22;4741;49.834;10.740;2023-10-09T21:28:48;12.60;99.90
9403;DHT22;4741;49.834;10.740;2023-10-09T21:31:16;12.30;99.90
9403;DHT22;4741;49.834;10.740;2023-10-09T21:33:43;12.20;99.90
9403;DHT22;4741;49.834;10.740;2023-10-09T21:36:09;13.30;99.90
9403;DHT22;4741;49.834;10.740;2023-10-09T21:38:36;13.00;99.90
9403;DHT22;4741;49.834;10.740;2023-10-09T21:41:13;13.40;99.90
9403;DHT22;4741;49.834;10.740;2023-10-09T21:43:43;13.40;99.90
9403;DHT22;4741;49.834;10.740;2023-10-09T21:46:11;13.40;99.90
9403;DHT22;4741;49.834;10.740;2023-10-09T21:48:38;13.40;99.90
9403;DHT22;4741;49.834;10.740;2023-10-09T21:51:08;13.40;99.90
9403;DHT22;4741;49.834;10.740;2023-10-09T21:53:35;13.40;99.90
9403;DHT22;4741;49.834;10.740;2023-10-09T21:56:05;13.40;99.90
9403;DHT22;4741;49.834;10.740;2023-10-09T21:58:32;13.40;99.90
9403;DHT22;4741;49.834;10.740;2023-10-09T22:00:58;13.30;99.90
9403;DHT22;4741;49.834;10.740;2023-10-09T22:03:27;13.20;99.90
9403;DHT22;4741;49.834;10.740;2023-10-09T22:05:54;13.30;99.90
9403;DHT22;4741;49.834;10.740;2023-10-09T22:08:24;13.20;99.90
9403;DHT22;4741;49.834;10.740;2023-10-09T22:10:52;13.10;99.90
9403;DHT22;4741;49.834;10.740;2023-10-09T22:13:19;13.20;99.90
9403;DHT22;4741;49.834;10.740;2023-10-09T22:15:46;13.10;99.90
9403;DHT22;4741;49.834;10.740;2023-10-09T22:18:14;13.10;99.90
9403;DHT22;4741;49.834;10.740;2023-10-09T22:20:48;13.00;99.90
9403;DHT22;4741;49.834;10.740;2023-10-09T22:23:15;12.90;99.90
9403;DHT22;4741;49.834;10.740;2023-10-09T22:25:45;13.00;99.90
9403;DHT22;4741;49.834;10.740;2023-10-09T22:28:23;12.80;99.90
9403;DHT22;4741;49.834;10.740;2023-10-09T22:30:50;13.10;99.90
9403;DHT22;4741;49.834;10.740;2023-10-09T22:33:19;13.10;99.90
9403;DHT22;4741;49.834;10.740;2023-10-09T22:35:49;13.00;99.90
9403;DHT22;4741;49.834;10.740;2023-10-09T22:38:19;12.80;99.90
9403;DHT22;4741;49.834;10.740;2023-10-09T22:40:49;12.90;99.90
9403;DHT22;4741;49.834;10.740;2023-10-09T22:43:17;12.90;99.90
9403;DHT22;4741;49.834;10.740;2023-10-09T22:45:50;13.10;99.90
9403;DHT22;4741;49.834;10.740;2023-10-09T22:48:18;12.30;99.90
9403;DHT22;4741;49.834;10.740;2023-10-09T22:53:12;12.80;99.90
9403;DHT22;4741;49.834;10.740;2023-10-09T22:55:49;12.80;99.90
9403;DHT22;4741;49.834;10.740;2023-10-09T22:58:19;12.80;99.90
9403;DHT22;4741;49.834;10.740;2023-10-09T23:00:52;12.80;99.90
9403;DHT22;4741;49.834;10.740;2023-10-09T23:03:21;12.80;99.90
9403;DHT22;4741;49.834;10.740;2023-10-09T23:06:01;12.80;99.90
9403;DHT22;4741;49.834;10.740;2023-10-09T23:08:35;12.80;99.90
9403;DHT22;4741;49.834;10.740;2023-10-09T23:11:02;12.80;99.90
9403;DHT22;4741;49.834;10.740;2023-10-09T23:13:36;12.80;99.90
9403;DHT22;4741;49.834;10.740;2023-10-09T23:16:04;12.70;99.90
9403;DHT22;4741;49.834;10.740;2023-10-09T23:18:35;12.70;99.90
9403;DHT22;4741;49.834;10.740;2023-10-09T23:21:31;12.70;99.90
9403;DHT22;4741;49.834;10.740;2023-10-09T23:24:17;12.70;99.90
9403;DHT22;4741;49.834;10.740;2023-10-09T23:26:54;12.70;99.90
9403;DHT22;4741;49.834;10.740;2023-10-09T23:29:22;12.70;99.90
9403;DHT22;4741;49.834;10.740;2023-10-09T23:32:00;12.70;99.90
9403;DHT22;4741;49.834;10.740;2023-10-09T23:34:59;12.70;99.90
9403;DHT22;4741;49.834;10.740;2023-10-09T23:37:26;12.60;99.90
9403;DHT22;4741;49.834;10.740;2023-10-09T23:40:23;12.60;99.90
9403;DHT22;4741;49.834;10.740;2023-10-09T23:43:04;12.60;99.90
9403;DHT22;4741;49.834;10.740;2023-10-09T23:45:31;12.50;99.90
9403;DHT22;4741;49.834;10.740;2023-10-09T23:50:26;12.40;99.90
9403;DHT22;4741;49.834;10.740;2023-10-09T23:52:58;12.40;99.90
9403;DHT22;4741;49.834;10.740;2023-10-09T23:55:29;12.40;99.90
9403;DHT22;4741;49.834;10.740;2023-10-09T23:57:57;12.40;99.90
